Аэропорт: Витязево. Анапа

ICAO: URKA

METAR:
2019/01/21 23:00
URKA 212300Z AUTO 34003MPS 9000 // ///006/// 03/02 Q1016 RMK QFE758/1011
METAR:
2019/01/21 18:48
TAF 
      AMD TAF 
      AMD URKA 211944Z 2118/2218 CNL